Time;durP1;ratioP1;P1;durP2;ratioP2;P2;SDS_P1;SDS_P2;PMS_P1;PMS_P2;Temp;Humidity;BMP_temperature;BMP_pressure;BME280_temperature;BME280_humidity;BME280_pressure;Samples;Min_cycle;Max_cycle;Signal;HPM_P1;HPM_P2
2021/11/05 00:02:19;;;;;;;11.27;7.07;;;6.90;98.60;;;;;;5037523;28;20045;-86
2021/11/05 00:04:45;;;;;;;9.48;5.75;;;6.90;98.60;;;;;;5037880;28;20091;-85
2021/11/05 00:07:10;;;;;;;9.23;5.85;;;6.90;98.60;;;;;;5036346;28;20081;-85
2021/11/05 00:09:36;;;;;;;10.07;6.05;;;6.90;98.50;;;;;;5055148;28;20045;-85
2021/11/05 00:12:01;;;;;;;8.60;6.18;;;6.90;98.50;;;;;;5036096;28;20053;-87
2021/11/05 00:14:27;;;;;;;8.20;5.57;;;6.90;98.50;;;;;;5038026;28;20091;-88
2021/11/05 00:16:52;;;;;;;8.48;5.35;;;6.90;98.60;;;;;;5036818;28;20063;-84
2021/11/05 00:19:18;;;;;;;8.38;5.38;;;6.90;98.60;;;;;;5036168;28;20071;-85
2021/11/05 00:21:43;;;;;;;9.25;5.80;;;6.90;98.50;;;;;;5037593;28;20037;-83
2021/11/05 00:24:09;;;;;;;8.15;5.43;;;6.80;98.50;;;;;;5037138;28;20072;-84
2021/11/05 00:26:35;;;;;;;8.52;5.63;;;6.80;98.60;;;;;;5036054;28;20045;-85
2021/11/05 00:29:01;;;;;;;9.32;5.80;;;6.80;98.70;;;;;;5035833;28;20041;-84
2021/11/05 00:31:27;;;;;;;8.88;5.00;;;6.80;98.70;;;;;;5036179;28;20447;-85
2021/11/05 00:33:52;;;;;;;6.90;4.88;;;6.80;98.80;;;;;;5036739;28;20037;-84
2021/11/05 00:36:18;;;;;;;8.88;4.70;;;6.80;98.80;;;;;;5036752;28;20082;-85
2021/11/05 00:38:45;;;;;;;8.13;5.32;;;6.90;98.70;;;;;;5055435;28;20483;-85
2021/11/05 00:41:14;;;;;;;8.30;4.70;;;6.80;98.70;;;;;;5053888;28;20419;-84
2021/11/05 00:43:41;;;;;;;9.23;4.80;;;6.80;98.70;;;;;;5036508;28;20045;-84
2021/11/05 00:46:07;;;;;;;8.30;4.63;;;6.90;98.60;;;;;;5052950;28;20041;-85
2021/11/05 00:48:33;;;;;;;6.43;4.10;;;6.80;98.60;;;;;;5036543;28;20064;-85
2021/11/05 00:50:59;;;;;;;6.80;4.50;;;6.80;98.50;;;;;;5036445;28;20040;-85
2021/11/05 00:53:25;;;;;;;6.38;4.00;;;6.90;98.50;;;;;;5036079;28;20121;-85
2021/11/05 00:55:51;;;;;;;6.60;4.30;;;6.80;98.40;;;;;;5035913;28;20136;-84
2021/11/05 00:58:17;;;;;;;9.30;4.57;;;6.80;98.30;;;;;;5035581;28;20049;-84
2021/11/05 01:00:43;;;;;;;6.65;3.95;;;6.80;98.30;;;;;;5036379;28;20393;-83
2021/11/05 01:03:09;;;;;;;6.25;3.80;;;6.80;98.30;;;;;;5035907;28;20037;-83
2021/11/05 01:05:36;;;;;;;7.95;4.15;;;6.80;98.30;;;;;;5036825;28;20503;-87
2021/11/05 01:08:02;;;;;;;6.75;3.70;;;6.80;98.30;;;;;;5036176;28;20078;-84
2021/11/05 01:10:28;;;;;;;8.18;3.97;;;6.80;98.30;;;;;;5035475;28;20052;-83
2021/11/05 01:12:54;;;;;;;5.60;3.50;;;6.80;98.30;;;;;;5053663;28;20057;-84
2021/11/05 01:15:20;;;;;;;6.68;3.72;;;6.80;98.30;;;;;;5025923;28;20037;-84
2021/11/05 01:17:46;;;;;;;5.72;3.45;;;6.80;98.40;;;;;;5036150;28;20110;-84
2021/11/05 01:20:14;;;;;;;6.53;3.83;;;6.80;98.50;;;;;;5035908;28;20068;-84
2021/11/05 01:22:40;;;;;;;7.03;3.88;;;6.80;98.50;;;;;;5035138;28;20048;-84
2021/11/05 01:25:06;;;;;;;6.57;3.95;;;6.80;98.50;;;;;;5035710;28;20036;-83
2021/11/05 01:27:32;;;;;;;5.35;3.35;;;6.80;98.50;;;;;;5036273;28;20046;-84
2021/11/05 01:29:59;;;;;;;6.75;3.95;;;6.80;98.50;;;;;;5035578;28;20107;-84
2021/11/05 01:32:26;;;;;;;5.20;2.80;;;6.80;98.50;;;;;;5035937;28;20044;-83
2021/11/05 01:34:51;;;;;;;6.60;3.53;;;6.80;98.50;;;;;;5036065;28;20053;-83
2021/11/05 01:37:17;;;;;;;6.13;3.10;;;6.80;98.50;;;;;;5035045;28;20045;-83
2021/11/05 01:39:42;;;;;;;6.22;3.45;;;6.80;98.50;;;;;;5035645;28;20033;-83
2021/11/05 01:42:08;;;;;;;6.20;3.80;;;6.70;98.50;;;;;;5035681;28;20171;-84
2021/11/05 01:44:34;;;;;;;5.80;3.40;;;6.70;98.60;;;;;;5034634;28;20151;-84
2021/11/05 01:47:00;;;;;;;5.47;2.90;;;6.70;98.60;;;;;;5035385;28;20040;-84
2021/11/05 01:49:26;;;;;;;6.28;3.38;;;6.70;98.60;;;;;;5035920;28;20132;-84
2021/11/05 01:51:53;;;;;;;5.28;2.92;;;6.70;98.60;;;;;;5034352;28;20044;-83
2021/11/05 01:54:19;;;;;;;5.13;2.88;;;6.70;98.60;;;;;;5035351;28;20040;-84
2021/11/05 01:56:45;;;;;;;5.00;2.80;;;6.70;98.60;;;;;;5034510;28;20082;-86
2021/11/05 01:59:31;;;;;;;5.97;2.95;;;6.70;98.70;;;;;;5034966;28;20102;-85
2021/11/05 02:01:58;;;;;;;6.60;2.70;;;6.60;98.60;;;;;;5035463;28;20400;-84
2021/11/05 02:04:24;;;;;;;4.50;2.33;;;6.60;98.70;;;;;;5035747;28;20485;-84
2021/11/05 02:06:51;;;;;;;4.90;2.72;;;6.60;98.70;;;;;;5034172;28;20048;-84
2021/11/05 02:09:22;;;;;;;5.72;2.55;;;6.60;98.70;;;;;;5035503;28;20071;-84
2021/11/05 02:11:49;;;;;;;4.47;2.40;;;6.50;98.70;;;;;;5034557;28;20084;-84
2021/11/05 02:14:17;;;;;;;5.97;2.75;;;6.50;98.70;;;;;;5034559;28;20393;-84
2021/11/05 02:16:44;;;;;;;4.63;2.50;;;6.50;98.80;;;;;;5018891;28;21798;-84
2021/11/05 02:19:13;;;;;;;4.57;2.38;;;6.50;98.90;;;;;;5034548;28;20135;-84
2021/11/05 02:21:41;;;;;;;4.93;2.40;;;6.50;98.90;;;;;;5035465;28;20140;-84
2021/11/05 02:24:08;;;;;;;4.25;2.20;;;6.50;98.90;;;;;;5034986;28;20084;-83
2021/11/05 02:26:34;;;;;;;5.05;2.00;;;6.50;98.90;;;;;;5027270;28;20041;-84
2021/11/05 02:28:59;;;;;;;3.25;1.73;;;6.40;98.90;;;;;;5034382;28;20374;-84
2021/11/05 02:31:25;;;;;;;3.95;2.05;;;6.40;98.80;;;;;;5035366;28;20075;-84
2021/11/05 02:33:52;;;;;;;4.45;1.90;;;6.40;98.80;;;;;;5034630;28;20210;-84
2021/11/05 02:36:17;;;;;;;6.18;2.25;;;6.40;98.80;;;;;;5028298;28;20045;-84
2021/11/05 02:38:43;;;;;;;3.72;1.80;;;6.40;98.80;;;;;;5032670;28;20045;-84
2021/11/05 02:41:09;;;;;;;3.95;2.10;;;6.40;98.80;;;;;;5034819;28;20128;-85
2021/11/05 02:43:34;;;;;;;6.88;1.90;;;6.40;98.80;;;;;;5034000;28;20488;-84
2021/11/05 02:46:00;;;;;;;3.22;1.60;;;6.30;98.80;;;;;;5035060;28;20500;-85
2021/11/05 02:48:30;;;;;;;4.82;1.90;;;6.30;98.80;;;;;;5033879;28;20093;-85
2021/11/05 02:50:56;;;;;;;3.97;1.67;;;6.40;98.80;;;;;;5036090;28;20041;-84
2021/11/05 02:53:22;;;;;;;3.78;1.80;;;6.30;98.70;;;;;;5038504;28;20052;-84
2021/11/05 02:55:48;;;;;;;4.28;1.65;;;6.30;98.70;;;;;;5035778;28;20033;-84
2021/11/05 02:58:13;;;;;;;5.90;1.80;;;6.30;98.70;;;;;;5031256;28;20551;-84
2021/11/05 03:00:42;;;;;;;5.68;1.70;;;6.30;98.70;;;;;;5039102;28;20091;-84
2021/11/05 03:03:08;;;;;;;3.85;1.50;;;6.30;98.90;;;;;;5038213;28;20125;-85
2021/11/05 03:05:34;;;;;;;4.28;1.60;;;6.30;98.80;;;;;;5038313;28;20132;-84
2021/11/05 03:07:59;;;;;;;6.05;1.90;;;6.30;98.80;;;;;;5037972;28;20401;-84
2021/11/05 03:10:25;;;;;;;5.05;1.70;;;6.30;98.80;;;;;;5039075;28;20500;-85
2021/11/05 03:12:51;;;;;;;4.47;1.92;;;6.30;98.80;;;;;;5038022;28;20049;-84
2021/11/05 03:15:16;;;;;;;3.33;1.40;;;6.30;98.80;;;;;;5020512;28;20093;-84
2021/11/05 03:17:43;;;;;;;4.20;1.88;;;6.30;98.80;;;;;;5028313;28;20044;-83
2021/11/05 03:20:10;;;;;;;3.65;1.40;;;6.30;98.90;;;;;;5038281;28;20037;-84
2021/11/05 03:22:36;;;;;;;4.50;1.67;;;6.30;98.90;;;;;;5038155;28;20140;-84
2021/11/05 03:25:02;;;;;;;3.97;1.60;;;6.30;98.80;;;;;;5038029;28;20080;-84
2021/11/05 03:27:28;;;;;;;4.13;1.30;;;6.30;98.80;;;;;;5038213;28;20052;-84
2021/11/05 03:29:53;;;;;;;3.30;1.38;;;6.40;98.90;;;;;;5037640;28;20045;-86
2021/11/05 03:32:19;;;;;;;4.43;1.20;;;6.40;98.80;;;;;;5038208;28;20076;-85
2021/11/05 03:34:45;;;;;;;6.00;1.25;;;6.30;98.80;;;;;;5038571;28;20377;-84
2021/11/05 03:37:10;;;;;;;8.25;1.50;;;6.40;98.80;;;;;;5035847;28;20044;-84
2021/11/05 03:39:36;;;;;;;3.63;1.25;;;6.40;98.80;;;;;;5030113;28;20041;-84
2021/11/05 03:42:03;;;;;;;6.28;1.40;;;6.40;98.70;;;;;;5037851;28;20377;-84
2021/11/05 03:44:28;;;;;;;8.35;1.35;;;6.50;98.80;;;;;;5037241;28;20519;-84
2021/11/05 03:46:54;;;;;;;6.30;1.38;;;6.50;98.90;;;;;;5038129;28;20049;-84
2021/11/05 03:49:20;;;;;;;5.90;1.40;;;6.50;99.00;;;;;;5032625;28;20037;-84
2021/11/05 03:51:46;;;;;;;7.53;1.40;;;6.50;98.90;;;;;;5019737;28;20049;-85
2021/11/05 03:54:12;;;;;;;4.30;1.20;;;6.50;99.00;;;;;;5037763;28;20120;-84
2021/11/05 03:56:38;;;;;;;4.57;1.10;;;6.60;99.00;;;;;;5036849;28;20049;-83
2021/11/05 03:59:03;;;;;;;3.85;1.50;;;6.60;98.90;;;;;;5036519;28;20056;-84
2021/11/05 04:01:29;;;;;;;2.80;1.10;;;6.60;98.80;;;;;;5034069;28;20041;-85
2021/11/05 04:03:55;;;;;;;3.53;1.20;;;6.60;98.60;;;;;;5037649;28;20040;-85
2021/11/05 04:06:22;;;;;;;2.70;1.00;;;6.60;98.50;;;;;;5035964;28;20546;-85
2021/11/05 04:08:48;;;;;;;4.57;1.30;;;6.60;98.30;;;;;;5036558;28;20091;-85
2021/11/05 04:11:14;;;;;;;2.55;1.02;;;6.60;98.20;;;;;;5036244;28;20037;-84
2021/11/05 04:13:40;;;;;;;4.20;1.10;;;6.60;98.20;;;;;;5037591;28;20114;-85
2021/11/05 04:16:07;;;;;;;2.92;1.10;;;6.60;98.20;;;;;;5037465;28;20099;-85
2021/11/05 04:18:33;;;;;;;3.45;1.20;;;6.60;98.10;;;;;;5036485;28;20095;-84
2021/11/05 04:20:59;;;;;;;3.17;1.13;;;6.60;98.10;;;;;;5035225;28;20041;-84
2021/11/05 04:23:24;;;;;;;4.07;1.17;;;6.50;98.10;;;;;;5037053;28;20052;-85
2021/11/05 04:25:50;;;;;;;6.18;1.15;;;6.50;98.10;;;;;;5036635;28;20049;-85
2021/11/05 04:28:16;;;;;;;7.18;1.20;;;6.60;98.20;;;;;;5036863;28;20128;-85
2021/11/05 04:30:43;;;;;;;4.07;1.05;;;6.50;98.40;;;;;;5036765;28;20069;-85
2021/11/05 04:33:10;;;;;;;6.90;1.27;;;6.60;98.50;;;;;;5036516;28;20044;-85
2021/11/05 04:35:37;;;;;;;7.25;1.60;;;6.60;98.60;;;;;;5036453;28;20133;-85
2021/11/05 04:38:03;;;;;;;5.90;1.02;;;6.60;98.80;;;;;;5036827;28;20045;-85
2021/11/05 04:40:29;;;;;;;10.00;1.30;;;6.70;99.00;;;;;;5036364;28;20037;-85
2021/11/05 04:42:55;;;;;;;5.00;1.00;;;6.70;98.90;;;;;;5036957;28;20396;-84
2021/11/05 04:45:21;;;;;;;12.13;1.50;;;6.70;98.90;;;;;;5036547;28;20036;-85
2021/11/05 04:47:46;;;;;;;8.20;1.40;;;6.70;99.00;;;;;;5035486;28;20036;-84
2021/11/05 04:50:12;;;;;;;5.13;1.17;;;6.80;99.20;;;;;;5036482;28;20037;-85
2021/11/05 04:52:39;;;;;;;5.93;1.33;;;6.80;99.30;;;;;;5036998;28;20037;-85
2021/11/05 04:55:06;;;;;;;4.72;1.20;;;6.80;99.30;;;;;;5035916;28;20060;-85
2021/11/05 04:57:31;;;;;;;7.63;1.33;;;6.80;99.40;;;;;;5036755;28;20045;-85
2021/11/05 04:59:57;;;;;;;7.82;1.30;;;6.80;99.30;;;;;;5035850;28;20119;-85
2021/11/05 05:02:23;;;;;;;3.00;1.08;;;6.80;99.40;;;;;;5035758;28;20036;-85
2021/11/05 05:04:50;;;;;;;5.38;1.13;;;6.80;99.40;;;;;;5027367;28;20041;-85
2021/11/05 05:07:16;;;;;;;4.85;1.30;;;6.80;99.20;;;;;;5026400;28;20053;-85
2021/11/05 05:09:42;;;;;;;3.78;1.00;;;6.80;99.20;;;;;;5029721;28;20048;-85
2021/11/05 05:12:08;;;;;;;3.95;1.00;;;6.90;99.10;;;;;;5025116;28;20041;-85
2021/11/05 05:14:34;;;;;;;7.80;1.10;;;6.90;99.10;;;;;;5034681;28;20128;-85
2021/11/05 05:17:00;;;;;;;10.30;1.48;;;6.90;99.00;;;;;;5035274;28;20102;-85
2021/11/05 05:19:26;;;;;;;8.73;1.42;;;6.90;99.20;;;;;;5035845;28;20127;-85
2021/11/05 05:21:51;;;;;;;10.88;1.40;;;6.90;99.30;;;;;;5035440;28;20500;-85
2021/11/05 05:24:17;;;;;;;5.45;1.20;;;7.00;99.40;;;;;;5028575;28;20159;-86
2021/11/05 05:26:42;;;;;;;6.05;1.20;;;7.00;99.50;;;;;;5026448;28;20661;-85
2021/11/05 05:29:08;;;;;;;7.35;1.20;;;7.00;99.60;;;;;;5035342;28;20083;-86
2021/11/05 05:31:34;;;;;;;10.32;1.55;;;7.00;99.40;;;;;;5023904;28;20083;-86
2021/11/05 05:33:59;;;;;;;7.32;1.30;;;7.00;99.40;;;;;;5036160;28;20041;-87
2021/11/05 05:36:25;;;;;;;6.10;1.15;;;7.10;99.50;;;;;;5034033;28;20059;-83
2021/11/05 05:38:51;;;;;;;8.20;1.50;;;7.10;99.50;;;;;;5036132;28;20512;-84
2021/11/05 05:41:17;;;;;;;8.88;1.40;;;7.10;99.60;;;;;;5035143;28;20041;-85
2021/11/05 05:43:43;;;;;;;5.10;1.10;;;7.10;99.60;;;;;;5030565;28;20044;-85
2021/11/05 05:46:09;;;;;;;7.43;1.50;;;7.20;99.70;;;;;;5023730;28;20037;-86
2021/11/05 05:48:35;;;;;;;6.90;1.40;;;7.20;99.60;;;;;;5035572;28;20045;-87
2021/11/05 05:51:00;;;;;;;12.13;1.20;;;7.20;99.60;;;;;;5027298;28;20082;-87
2021/11/05 05:53:26;;;;;;;12.45;1.80;;;7.20;99.60;;;;;;5015782;28;20045;-88
2021/11/05 05:55:52;;;;;;;7.00;1.20;;;7.20;99.70;;;;;;5024106;28;20488;-86
2021/11/05 05:58:18;;;;;;;7.95;1.58;;;7.20;99.80;;;;;;5051980;28;20041;-87
2021/11/05 06:00:44;;;;;;;7.40;1.40;;;7.20;99.70;;;;;;5035470;28;20473;-86
2021/11/05 06:03:11;;;;;;;5.07;1.30;;;7.30;99.70;;;;;;5033284;28;20127;-86
2021/11/05 06:05:37;;;;;;;7.53;1.40;;;7.20;99.60;;;;;;5015999;28;20076;-86
2021/11/05 06:08:03;;;;;;;17.38;2.28;;;7.30;99.60;;;;;;5015749;28;20076;-86
2021/11/05 06:10:30;;;;;;;14.82;2.20;;;7.30;99.70;;;;;;5016081;28;20037;-86
2021/11/05 06:12:55;;;;;;;8.40;1.60;;;7.30;99.90;;;;;;5015297;28;20054;-86
2021/11/05 06:15:21;;;;;;;7.32;1.75;;;7.30;99.90;;;;;;5016146;28;20034;-87
2021/11/05 06:17:46;;;;;;;10.48;1.67;;;7.30;99.90;;;;;;5032852;28;20049;-85
2021/11/05 06:20:12;;;;;;;7.97;1.70;;;7.30;99.90;;;;;;5015952;28;20124;-85
2021/11/05 06:22:38;;;;;;;11.55;1.90;;;7.30;99.90;;;;;;5016086;28;20087;-86
2021/11/05 06:25:04;;;;;;;10.57;1.90;;;7.40;99.90;;;;;;5034754;28;20578;-86
2021/11/05 06:27:30;;;;;;;9.55;1.70;;;7.40;99.90;;;;;;5035548;28;20451;-86
2021/11/05 06:29:56;;;;;;;13.40;2.00;;;7.40;99.90;;;;;;5035725;28;20037;-86
2021/11/05 06:32:22;;;;;;;7.13;1.58;;;7.40;99.90;;;;;;5034894;28;20044;-86
2021/11/05 06:34:49;;;;;;;8.32;1.58;;;7.40;99.90;;;;;;5019715;28;20041;-86
2021/11/05 06:37:14;;;;;;;10.52;1.70;;;7.40;99.90;;;;;;5015310;28;20088;-86
2021/11/05 06:39:41;;;;;;;9.35;1.73;;;7.40;99.90;;;;;;5015046;28;20077;-87
2021/11/05 06:42:07;;;;;;;7.35;1.50;;;7.40;99.90;;;;;;5015590;28;20132;-86
2021/11/05 06:44:32;;;;;;;6.55;1.30;;;7.40;99.90;;;;;;5033186;28;20128;-85
2021/11/05 06:46:58;;;;;;;7.57;1.40;;;7.50;99.90;;;;;;5032927;28;20041;-85
2021/11/05 06:49:24;;;;;;;4.43;0.98;;;7.50;99.90;;;;;;5035760;28;20393;-86
2021/11/05 06:51:54;;;;;;;5.03;1.20;;;7.40;99.90;;;;;;5035180;28;20048;-85
2021/11/05 06:54:20;;;;;;;7.63;1.50;;;7.40;99.80;;;;;;5034725;28;20045;-85
2021/11/05 06:56:46;;;;;;;7.03;1.20;;;7.40;99.70;;;;;;5035501;28;20037;-86
2021/11/05 06:59:12;;;;;;;7.47;1.60;;;7.50;99.70;;;;;;5035163;28;20052;-86
2021/11/05 07:01:38;;;;;;;6.30;1.20;;;7.40;99.70;;;;;;5034655;28;20397;-85
2021/11/05 07:04:05;;;;;;;7.38;1.40;;;7.40;99.60;;;;;;5033277;28;20055;-86
2021/11/05 07:06:30;;;;;;;6.35;1.50;;;7.40;99.60;;;;;;5035448;28;20485;-86
2021/11/05 07:08:56;;;;;;;4.20;1.10;;;7.40;99.60;;;;;;5034921;28;20043;-86
2021/11/05 07:11:21;;;;;;;3.85;1.15;;;7.40;99.60;;;;;;5035491;28;20107;-86
2021/11/05 07:13:47;;;;;;;3.53;0.93;;;7.40;99.60;;;;;;5035332;28;20488;-86
2021/11/05 07:16:13;;;;;;;2.38;0.90;;;7.40;99.60;;;;;;5034050;28;20149;-86
2021/11/05 07:18:38;;;;;;;4.63;1.30;;;7.30;99.40;;;;;;5035283;28;20488;-85
2021/11/05 07:21:04;;;;;;;3.75;1.02;;;7.30;99.40;;;;;;5034229;28;20041;-86
2021/11/05 07:23:34;;;;;;;4.35;1.10;;;7.30;99.40;;;;;;5035400;28;20484;-86
2021/11/05 07:26:01;;;;;;;4.40;1.10;;;7.30;99.30;;;;;;5016291;28;20077;-86
2021/11/05 07:28:27;;;;;;;3.25;1.00;;;7.20;99.20;;;;;;5014946;28;20056;-86
2021/11/05 07:30:52;;;;;;;5.47;1.10;;;7.30;99.20;;;;;;5021640;28;20046;-87
2021/11/05 07:33:18;;;;;;;5.10;1.30;;;7.20;99.10;;;;;;5029127;28;20029;-86
2021/11/05 07:35:44;;;;;;;4.13;1.10;;;7.20;99.10;;;;;;5034255;28;20091;-86
2021/11/05 07:38:10;;;;;;;3.67;1.00;;;7.20;99.10;;;;;;5037773;28;20049;-86
2021/11/05 07:40:35;;;;;;;6.07;1.63;;;7.20;99.10;;;;;;5037995;28;20049;-86
2021/11/05 07:43:01;;;;;;;6.32;1.23;;;7.20;99.10;;;;;;5019028;28;20045;-86
2021/11/05 07:45:27;;;;;;;4.32;1.27;;;7.20;99.20;;;;;;5018539;28;20143;-85
2021/11/05 07:47:56;;;;;;;4.25;1.20;;;7.20;99.20;;;;;;5018820;28;20057;-87
2021/11/05 07:50:24;;;;;;;6.38;1.30;;;7.20;99.20;;;;;;5019276;28;20480;-86
2021/11/05 07:52:50;;;;;;;4.28;1.10;;;7.20;99.30;;;;;;5018399;28;20052;-84
2021/11/05 07:55:16;;;;;;;10.65;1.38;;;7.20;99.30;;;;;;5018050;28;20037;-85
2021/11/05 07:57:42;;;;;;;7.93;1.90;;;7.20;99.30;;;;;;5027759;28;20460;-84
2021/11/05 08:00:10;;;;;;;5.45;1.50;;;7.20;99.40;;;;;;5038115;28;20044;-85
2021/11/05 08:02:36;;;;;;;6.10;1.40;;;7.20;99.60;;;;;;5038392;28;20490;-84
2021/11/05 08:05:02;;;;;;;7.28;1.88;;;7.30;99.60;;;;;;5035798;28;20175;-84
2021/11/05 08:07:28;;;;;;;9.38;1.50;;;7.30;99.70;;;;;;5038142;28;20094;-84
2021/11/05 08:09:53;;;;;;;4.50;1.02;;;7.40;99.80;;;;;;5038024;28;20091;-84
2021/11/05 08:12:19;;;;;;;9.73;1.75;;;7.40;99.60;;;;;;5036946;28;20092;-84
2021/11/05 08:14:45;;;;;;;7.93;1.55;;;7.50;99.80;;;;;;5038252;28;20049;-84
2021/11/05 08:17:11;;;;;;;9.43;2.22;;;7.50;99.90;;;;;;5037599;28;20412;-84
2021/11/05 08:19:37;;;;;;;9.20;2.25;;;7.60;99.90;;;;;;5037091;28;20382;-85
2021/11/05 08:22:03;;;;;;;11.82;2.10;;;7.60;99.90;;;;;;5036117;28;20492;-84
2021/11/05 08:24:28;;;;;;;13.95;2.30;;;7.70;99.90;;;;;;5036885;28;20052;-85
2021/11/05 08:26:54;;;;;;;4.97;1.23;;;7.70;99.90;;;;;;5037200;28;20037;-85
2021/11/05 08:29:20;;;;;;;8.93;1.98;;;7.80;99.90;;;;;;5037618;28;20056;-85
2021/11/05 08:31:46;;;;;;;10.55;2.00;;;7.80;99.90;;;;;;5036461;28;20472;-85
2021/11/05 08:34:12;;;;;;;7.95;1.92;;;7.90;99.90;;;;;;5037249;28;20135;-85
2021/11/05 08:36:39;;;;;;;8.05;1.98;;;7.90;99.90;;;;;;5037682;28;20117;-85
2021/11/05 08:39:05;;;;;;;13.32;1.95;;;8.00;99.90;;;;;;5036756;28;20440;-85
2021/11/05 08:41:32;;;;;;;17.38;2.80;;;8.10;99.90;;;;;;5037404;28;20131;-84
2021/11/05 08:43:57;;;;;;;20.08;2.90;;;8.10;99.90;;;;;;5036756;28;20099;-84
2021/11/05 08:46:28;;;;;;;19.83;2.72;;;8.20;99.90;;;;;;5036786;28;20481;-85
2021/11/05 08:49:01;;;;;;;17.08;2.75;;;8.20;99.90;;;;;;5036632;28;20041;-84
2021/11/05 08:51:29;;;;;;;13.27;2.20;;;8.30;99.90;;;;;;5033373;28;20049;-85
2021/11/05 08:53:54;;;;;;;8.70;1.77;;;8.30;99.90;;;;;;5027852;28;20072;-85
2021/11/05 08:56:20;;;;;;;7.40;1.67;;;8.40;99.90;;;;;;5017352;28;20461;-85
2021/11/05 08:58:47;;;;;;;13.23;1.65;;;8.40;99.90;;;;;;5032566;28;20037;-85
2021/11/05 09:01:13;;;;;;;7.18;1.98;;;8.50;99.90;;;;;;5041017;28;20044;-85
2021/11/05 09:03:39;;;;;;;9.13;1.98;;;8.50;99.90;;;;;;5029586;28;20049;-85
2021/11/05 09:06:05;;;;;;;6.30;1.38;;;8.60;99.90;;;;;;5037038;28;20546;-86
2021/11/05 09:08:32;;;;;;;9.07;1.35;;;8.60;99.90;;;;;;5035933;28;20053;-85
2021/11/05 09:11:03;;;;;;;5.90;1.70;;;8.60;99.90;;;;;;5037330;28;20041;-88
2021/11/05 09:13:30;;;;;;;35.42;27.73;;;8.70;99.90;;;;;;5036333;28;20059;-88
2021/11/05 09:15:56;;;;;;;8.02;2.40;;;8.70;99.90;;;;;;5036033;28;20087;-88
2021/11/05 09:18:22;;;;;;;9.48;3.03;;;8.70;99.90;;;;;;5036639;28;20052;-88
2021/11/05 09:20:48;;;;;;;6.90;2.47;;;8.80;99.90;;;;;;5036432;28;20128;-88
2021/11/05 09:23:13;;;;;;;14.07;2.90;;;8.80;99.90;;;;;;5036412;28;20141;-88
2021/11/05 09:25:39;;;;;;;5.82;1.85;;;8.90;99.90;;;;;;5036965;28;20072;-88
2021/11/05 09:28:05;;;;;;;10.07;2.00;;;8.90;99.90;;;;;;5035305;28;20063;-88
2021/11/05 09:30:30;;;;;;;7.95;3.28;;;9.00;99.90;;;;;;5021643;28;20096;-88
2021/11/05 09:32:56;;;;;;;14.38;6.45;;;9.00;99.90;;;;;;5017580;28;20045;-86
2021/11/05 09:35:23;;;;;;;9.35;2.15;;;9.00;99.90;;;;;;5017568;28;20129;-87
2021/11/05 09:37:50;;;;;;;9.40;2.45;;;9.10;99.90;;;;;;5019421;28;20045;-87
2021/11/05 09:40:18;;;;;;;6.57;2.38;;;9.20;99.90;;;;;;5016346;28;20041;-87
2021/11/05 09:42:46;;;;;;;4.40;1.70;;;9.20;99.90;;;;;;5015956;28;20382;-87
2021/11/05 09:45:14;;;;;;;7.15;1.65;;;9.30;99.90;;;;;;5016219;28;20042;-88
2021/11/05 09:47:41;;;;;;;9.80;1.30;;;9.30;99.90;;;;;;5020100;28;20448;-88
2021/11/05 09:50:08;;;;;;;7.35;1.45;;;9.40;99.90;;;;;;5035367;28;20091;-86
2021/11/05 09:52:34;;;;;;;6.63;1.40;;;9.40;99.90;;;;;;5036320;28;20049;-88
2021/11/05 09:55:02;;;;;;;5.22;1.45;;;9.40;99.90;;;;;;5020652;28;20100;-88
2021/11/05 09:57:28;;;;;;;7.82;1.20;;;9.50;99.90;;;;;;5015597;28;20409;-88
2021/11/05 09:59:56;;;;;;;5.35;1.08;;;9.50;99.90;;;;;;5016251;28;20133;-88
2021/11/05 10:02:24;;;;;;;7.50;3.83;;;9.60;99.90;;;;;;5017509;28;20049;-87
2021/11/05 10:04:50;;;;;;;8.23;1.77;;;9.70;99.90;;;;;;5015680;28;20041;-87
2021/11/05 10:07:15;;;;;;;7.03;1.23;;;9.80;99.90;;;;;;5020177;28;20252;-88
2021/11/05 10:09:44;;;;;;;5.88;0.90;;;9.80;99.90;;;;;;5024681;28;20033;-89
2021/11/05 10:12:15;;;;;;;5.72;1.00;;;9.90;99.90;;;;;;5019327;28;20061;-88
2021/11/05 10:14:42;;;;;;;7.72;1.50;;;10.00;99.90;;;;;;5030236;28;20049;-88
2021/11/05 10:17:13;;;;;;;7.95;3.53;;;10.00;99.90;;;;;;5046853;28;20435;-89
2021/11/05 10:19:58;;;;;;;11.40;4.57;;;10.10;99.90;;;;;;5026716;28;20120;-90
2021/11/05 10:22:37;;;;;;;7.75;2.58;;;10.30;99.90;;;;;;5015348;28;20088;-89
2021/11/05 10:25:25;;;;;;;9.40;1.90;;;10.30;99.90;;;;;;5015621;28;20420;-89
2021/11/05 10:28:09;;;;;;;5.55;1.38;;;10.40;99.90;;;;;;5031974;28;20122;-89
2021/11/05 10:30:43;;;;;;;7.60;1.00;;;10.50;99.90;;;;;;5035554;28;20037;-87
2021/11/05 10:33:10;;;;;;;7.93;1.20;;;10.60;99.90;;;;;;5034705;28;20365;-89
2021/11/05 10:35:38;;;;;;;7.47;1.00;;;10.70;99.90;;;;;;5034236;28;20047;-88
2021/11/05 10:38:06;;;;;;;5.20;0.98;;;10.70;99.90;;;;;;5033800;28;20072;-89
2021/11/05 10:40:33;;;;;;;6.38;1.25;;;10.70;99.90;;;;;;5033302;28;20075;-89
2021/11/05 10:42:59;;;;;;;7.43;1.30;;;10.80;99.80;;;;;;5034890;28;20045;-89
2021/11/05 10:45:26;;;;;;;7.10;0.90;;;10.80;99.70;;;;;;5034714;28;20102;-90
2021/11/05 10:47:54;;;;;;;4.43;0.88;;;10.90;99.60;;;;;;5034992;28;20045;-90
2021/11/05 10:50:37;;;;;;;7.00;2.00;;;11.00;99.40;;;;;;5035227;28;20401;-88
2021/11/05 10:53:15;;;;;;;5.57;1.45;;;11.00;99.00;;;;;;5033870;28;20041;-88
2021/11/05 10:55:58;;;;;;;5.15;0.98;;;11.10;98.80;;;;;;5034600;28;20060;-88
2021/11/05 10:58:36;;;;;;;4.37;0.87;;;11.10;98.60;;;;;;5034746;28;20083;-88
2021/11/05 11:01:14;;;;;;;4.03;0.60;;;11.10;98.40;;;;;;5033912;28;20037;-89
2021/11/05 11:03:48;;;;;;;4.80;0.82;;;11.20;98.00;;;;;;5034622;28;20095;-89
2021/11/05 11:06:18;;;;;;;3.83;0.73;;;11.20;97.80;;;;;;5033950;28;20484;-88
2021/11/05 11:08:50;;;;;;;8.85;0.93;;;11.20;97.70;;;;;;5034780;28;20377;-88
2021/11/05 11:11:40;;;;;;;3.53;0.65;;;11.20;97.60;;;;;;5035295;28;20334;-89
2021/11/05 11:14:07;;;;;;;5.70;0.65;;;11.20;97.50;;;;;;5029906;28;20051;-89
2021/11/05 11:16:48;;;;;;;5.38;0.80;;;11.20;97.70;;;;;;5035639;28;20149;-88
2021/11/05 11:19:16;;;;;;;4.55;0.52;;;11.20;97.70;;;;;;5035672;28;20096;-89
2021/11/05 11:21:54;;;;;;;6.03;0.80;;;11.10;97.90;;;;;;5035265;28;20064;-88
2021/11/05 11:24:23;;;;;;;5.43;1.10;;;11.20;98.10;;;;;;5035393;28;20045;-89
2021/11/05 11:26:51;;;;;;;3.63;1.00;;;11.10;98.30;;;;;;5035851;28;20132;-89
2021/11/05 11:29:30;;;;;;;2.90;0.70;;;11.10;98.40;;;;;;5060865;23;20431;-90
2021/11/05 11:32:04;;;;;;;4.05;1.17;;;11.10;98.30;;;;;;5037850;28;20138;-88
2021/11/05 11:34:30;;;;;;;3.72;0.93;;;11.20;98.40;;;;;;5038363;28;20099;-89
2021/11/05 11:36:59;;;;;;;3.78;1.02;;;11.20;98.40;;;;;;5038420;28;20045;-88
2021/11/05 11:39:26;;;;;;;3.65;0.77;;;11.20;98.20;;;;;;5038594;28;20033;-89
2021/11/05 11:41:54;;;;;;;4.15;1.42;;;11.20;98.20;;;;;;5037792;28;20041;-86
2021/11/05 11:44:23;;;;;;;6.78;1.67;;;11.20;98.10;;;;;;5038010;28;20196;-89
2021/11/05 11:46:56;;;;;;;3.63;1.15;;;11.20;98.00;;;;;;5038446;28;20040;-88
2021/11/05 11:49:37;;;;;;;;;;;11.30;97.90;;;;;;5038269;28;20477;-89
2021/11/05 11:52:30;;;;;;;6.85;1.90;;;11.30;98.00;;;;;;5038107;28;19921;-88
2021/11/05 11:55:00;;;;;;;4.38;1.20;;;11.40;98.00;;;;;;5029874;28;20135;-90
2021/11/05 11:57:32;;;;;;;5.35;1.13;;;11.40;97.90;;;;;;5055830;28;20091;-90
2021/11/05 12:00:16;;;;;;;5.75;1.30;;;11.50;97.60;;;;;;5038675;28;20052;-89
2021/11/05 12:02:45;;;;;;;7.35;0.90;;;11.60;97.40;;;;;;5038405;28;20045;-91
2021/11/05 12:05:20;;;;;;;4.68;0.65;;;11.60;97.30;;;;;;5038935;28;20045;-92
2021/11/05 12:08:11;;;;;;;5.10;0.70;;;11.70;97.00;;;;;;5039196;28;20052;-90
2021/11/05 12:10:38;;;;;;;4.80;0.95;;;11.70;96.90;;;;;;5055710;28;20080;-89
2021/11/05 12:13:32;;;;;;;7.38;0.80;;;11.70;97.00;;;;;;5037645;28;20044;-87
2021/11/05 12:16:18;;;;;;;7.80;0.80;;;11.70;96.90;;;;;;5037599;28;20072;-86
2021/11/05 12:19:09;;;;;;;8.55;1.00;;;11.70;97.10;;;;;;5037031;28;20049;-86
2021/11/05 12:22:16;;;;;;;4.75;1.60;;;11.70;97.20;;;;;;5037504;28;20076;-87
2021/11/05 12:24:48;;;;;;;4.93;0.80;;;11.60;97.10;;;;;;5037267;28;20041;-86
2021/11/05 12:27:26;;;;;;;4.80;0.70;;;11.60;97.50;;;;;;5037469;28;20036;-86
2021/11/05 12:29:55;;;;;;;5.65;0.70;;;11.60;97.50;;;;;;5018045;28;20057;-86
2021/11/05 12:32:22;;;;;;;4.15;0.52;;;11.60;97.60;;;;;;5033837;28;20389;-87
2021/11/05 12:35:05;;;;;;;6.18;0.80;;;11.60;97.50;;;;;;5017963;28;20500;-86
2021/11/05 12:37:43;;;;;;;7.30;0.77;;;11.60;97.50;;;;;;5017205;28;20524;-85
2021/11/05 12:40:21;;;;;;;8.85;0.77;;;11.60;97.40;;;;;;5035242;28;20046;-83
2021/11/05 12:42:58;;;;;;;7.07;0.80;;;11.50;97.40;;;;;;5017697;28;20037;-84
2021/11/05 12:45:45;;;;;;;7.15;1.08;;;11.50;97.40;;;;;;5033163;28;20375;-84
2021/11/05 12:48:11;;;;;;;7.25;1.10;;;11.40;97.10;;;;;;5017785;28;20444;-84
2021/11/05 12:50:37;;;;;;;8.15;0.93;;;11.40;97.40;;;;;;5036494;28;20041;-84
2021/11/05 12:53:05;;;;;;;9.00;1.08;;;11.40;97.50;;;;;;5036189;28;20072;-86
2021/11/05 12:55:36;;;;;;;7.40;1.00;;;11.40;97.50;;;;;;5037511;28;20491;-85
2021/11/05 12:58:08;;;;;;;4.80;0.88;;;11.40;97.60;;;;;;5036746;28;20045;-85
2021/11/05 13:00:37;;;;;;;8.50;0.95;;;11.30;97.70;;;;;;5036719;28;20060;-85